sensor_id;sensor_type;location;lat;lon;timestamp;pressure;altitude;pressure_sealevel;temperature;humidity
60725;BME280;59881;36.722;-4.462;2023-02-23T00:01:43;100737.41;;;13.48;58.50
60725;BME280;59881;36.722;-4.462;2023-02-23T00:04:09;100714.59;;;12.53;58.78
60725;BME280;59881;36.722;-4.462;2023-02-23T00:06:35;100390.91;;;10.96;59.18
60725;BME280;59881;36.722;-4.462;2023-02-23T00:09:03;100605.00;;;12.46;59.11
60725;BME280;59881;36.722;-4.462;2023-02-23T00:11:36;100580.97;;;12.27;59.44
60725;BME280;59881;36.722;-4.462;2023-02-23T00:14:02;100741.19;;;13.21;59.67
60725;BME280;59881;36.722;-4.462;2023-02-23T00:16:28;100366.13;;;10.62;59.79
60725;BME280;59881;36.722;-4.462;2023-02-23T00:18:56;100748.03;;;13.12;60.10
60725;BME280;59881;36.722;-4.462;2023-02-23T00:21:31;100740.94;;;13.13;60.15
60725;BME280;59881;36.722;-4.462;2023-02-23T00:24:04;100740.09;;;13.12;60.21
60725;BME280;59881;36.722;-4.462;2023-02-23T00:26:32;100740.47;;;13.08;60.30
60725;BME280;59881;36.722;-4.462;2023-02-23T00:29:16;100153.88;;;8.74;60.10
60725;BME280;59881;36.722;-4.462;2023-02-23T00:31:45;100726.84;;;13.01;60.59
60725;BME280;59881;36.722;-4.462;2023-02-23T00:34:13;100547.47;;;11.92;60.61
60725;BME280;59881;36.722;-4.462;2023-02-23T00:36:40;100522.19;;;11.76;60.70
60725;BME280;59881;36.722;-4.462;2023-02-23T00:39:09;100725.19;;;13.00;60.88
60725;BME280;59881;36.722;-4.462;2023-02-23T00:41:50;99712.84;;;6.84;60.66
60725;BME280;59881;36.722;-4.462;2023-02-23T00:44:17;100723.63;;;12.97;60.77
60725;BME280;59881;36.722;-4.462;2023-02-23T00:46:44;100729.97;;;12.95;60.89
60725;BME280;59881;36.722;-4.462;2023-02-23T00:49:11;100717.72;;;12.94;61.12
60725;BME280;59881;36.722;-4.462;2023-02-23T00:51:37;100715.31;;;12.91;61.21
60725;BME280;59881;36.722;-4.462;2023-02-23T00:54:04;100716.16;;;12.91;61.41
60725;BME280;59881;36.722;-4.462;2023-02-23T00:56:30;100512.66;;;11.63;61.13
60725;BME280;59881;36.722;-4.462;2023-02-23T00:58:55;100714.81;;;12.86;60.82
60725;BME280;59881;36.722;-4.462;2023-02-23T01:01:22;100725.84;;;12.79;61.02
60725;BME280;59881;36.722;-4.462;2023-02-23T01:03:47;99872.63;;;7.37;61.06
60725;BME280;59881;36.722;-4.462;2023-02-23T01:06:15;100763.16;;;12.63;61.36
60725;BME280;59881;36.722;-4.462;2023-02-23T01:08:43;100718.34;;;12.62;61.57
60725;BME280;59881;36.722;-4.462;2023-02-23T01:11:13;100719.06;;;12.64;62.18
60725;BME280;59881;36.722;-4.462;2023-02-23T01:13:40;100492.09;;;11.31;61.89
60725;BME280;59881;36.722;-4.462;2023-02-23T01:16:12;100108.16;;;8.51;61.91
60725;BME280;59881;36.722;-4.462;2023-02-23T01:18:39;100605.00;;;11.63;61.93
60725;BME280;59881;36.722;-4.462;2023-02-23T01:21:14;100383.50;;;10.65;62.07
60725;BME280;59881;36.722;-4.462;2023-02-23T01:23:40;99659.41;;;6.21;61.99
60725;BME280;59881;36.722;-4.462;2023-02-23T01:26:14;100548.97;;;10.72;62.23
60725;BME280;59881;36.722;-4.462;2023-02-23T01:28:39;100706.31;;;12.58;62.48
60725;BME280;59881;36.722;-4.462;2023-02-23T01:31:08;100912.97;;;12.50;62.65
60725;BME280;59881;36.722;-4.462;2023-02-23T01:33:34;100695.09;;;12.43;62.69
60725;BME280;59881;36.722;-4.462;2023-02-23T01:36:00;100692.78;;;12.38;62.99
60725;BME280;59881;36.722;-4.462;2023-02-23T01:38:25;100271.31;;;9.76;63.06
60725;BME280;59881;36.722;-4.462;2023-02-23T01:40:52;98704.59;;;-0.39;62.57
60725;BME280;59881;36.722;-4.462;2023-02-23T01:43:20;100370.81;;;9.30;63.32
60725;BME280;59881;36.722;-4.462;2023-02-23T01:45:51;100502.59;;;9.66;63.56
60725;BME280;59881;36.722;-4.462;2023-02-23T01:48:25;100418.50;;;10.67;63.67
60725;BME280;59881;36.722;-4.462;2023-02-23T01:53:29;100340.31;;;10.18;63.72
60725;BME280;59881;36.722;-4.462;2023-02-23T01:56:02;100377.16;;;9.53;63.57
60725;BME280;59881;36.722;-4.462;2023-02-23T01:58:31;100163.34;;;8.09;63.70
60725;BME280;59881;36.722;-4.462;2023-02-23T02:00:58;99334.13;;;2.92;63.48
60725;BME280;59881;36.722;-4.462;2023-02-23T02:03:28;100665.00;;;12.09;63.92
60725;BME280;59881;36.722;-4.462;2023-02-23T02:05:56;100730.44;;;12.05;63.72
60725;BME280;59881;36.722;-4.462;2023-02-23T02:08:23;100662.50;;;12.07;64.29
60725;BME280;59881;36.722;-4.462;2023-02-23T02:10:51;100618.09;;;11.02;64.36
60725;BME280;59881;36.722;-4.462;2023-02-23T02:13:24;100661.53;;;12.08;64.55
60725;BME280;59881;36.722;-4.462;2023-02-23T02:16:38;100235.56;;;9.47;64.10
60725;BME280;59881;36.722;-4.462;2023-02-23T02:41:03;100635.13;;;12.08;64.03
60725;BME280;59881;36.722;-4.462;2023-02-23T02:43:59;100167.88;;;9.13;63.86
60725;BME280;59881;36.722;-4.462;2023-02-23T02:46:34;100666.63;;;11.62;63.84
60725;BME280;59881;36.722;-4.462;2023-02-23T02:57:26;100205.31;;;9.03;63.87
60725;BME280;59881;36.722;-4.462;2023-02-23T02:59:53;100628.09;;;11.72;64.09
60725;BME280;59881;36.722;-4.462;2023-02-23T03:02:39;100629.88;;;11.71;64.63
60725;BME280;59881;36.722;-4.462;2023-02-23T03:11:35;100235.13;;;9.41;64.64
60725;BME280;59881;36.722;-4.462;2023-02-23T03:20:40;100607.09;;;11.57;64.89
60725;BME280;59881;36.722;-4.462;2023-02-23T03:24:00;100617.06;;;11.54;65.15
60725;BME280;59881;36.722;-4.462;2023-02-23T03:27:00;100610.31;;;11.50;65.34
60725;BME280;59881;36.722;-4.462;2023-02-23T03:30:05;100590.47;;;11.44;65.29
60725;BME280;59881;36.722;-4.462;2023-02-23T03:32:59;100568.91;;;11.26;65.62
60725;BME280;59881;36.722;-4.462;2023-02-23T03:35:50;100594.19;;;11.42;65.45
60725;BME280;59881;36.722;-4.462;2023-02-23T03:38:49;100585.97;;;11.33;65.19
60725;BME280;59881;36.722;-4.462;2023-02-23T03:41:38;100088.44;;;8.18;65.31
60725;BME280;59881;36.722;-4.462;2023-02-23T03:44:28;100687.47;;;11.28;65.66
60725;BME280;59881;36.722;-4.462;2023-02-23T03:47:15;100582.31;;;11.23;65.64
60725;BME280;59881;36.722;-4.462;2023-02-23T03:50:03;100629.97;;;11.20;65.69
60725;BME280;59881;36.722;-4.462;2023-02-23T03:52:52;100258.78;;;8.62;65.77
60725;BME280;59881;36.722;-4.462;2023-02-23T03:55:41;100308.59;;;9.57;65.91
60725;BME280;59881;36.722;-4.462;2023-02-23T03:58:38;100446.78;;;10.39;66.48
60725;BME280;59881;36.722;-4.462;2023-02-23T04:01:26;100133.69;;;8.48;66.12
60725;BME280;59881;36.722;-4.462;2023-02-23T04:04:12;100578.53;;;11.27;66.52
60725;BME280;59881;36.722;-4.462;2023-02-23T04:06:58;100566.56;;;11.34;66.58
60725;BME280;59881;36.722;-4.462;2023-02-23T04:09:43;100258.00;;;8.87;66.40
60725;BME280;59881;36.722;-4.462;2023-02-23T04:12:40;100524.09;;;10.76;66.01
60725;BME280;59881;36.722;-4.462;2023-02-23T04:15:32;100514.22;;;11.04;66.08
60725;BME280;59881;36.722;-4.462;2023-02-23T04:18:06;100525.81;;;11.14;66.28
60725;BME280;59881;36.722;-4.462;2023-02-23T04:20:32;100464.84;;;10.18;66.24
60725;BME280;59881;36.722;-4.462;2023-02-23T04:22:58;100377.06;;;10.19;66.33
60725;BME280;59881;36.722;-4.462;2023-02-23T04:25:24;99757.38;;;6.30;65.96
60725;BME280;59881;36.722;-4.462;2023-02-23T04:27:51;100557.41;;;11.27;66.26
60725;BME280;59881;36.722;-4.462;2023-02-23T04:30:17;100553.81;;;11.28;66.57
60725;BME280;59881;36.722;-4.462;2023-02-23T04:32:43;100666.28;;;11.29;66.21
60725;BME280;59881;36.722;-4.462;2023-02-23T04:35:11;100558.03;;;11.31;65.91
60725;BME280;59881;36.722;-4.462;2023-02-23T04:37:37;99913.28;;;7.43;65.49
60725;BME280;59881;36.722;-4.462;2023-02-23T04:40:03;100551.41;;;11.25;65.94
60725;BME280;59881;36.722;-4.462;2023-02-23T04:42:29;99814.63;;;6.35;65.50
60725;BME280;59881;36.722;-4.462;2023-02-23T04:44:54;100642.59;;;10.38;65.83
60725;BME280;59881;36.722;-4.462;2023-02-23T04:47:20;100447.44;;;9.64;65.95
60725;BME280;59881;36.722;-4.462;2023-02-23T04:49:45;100605.56;;;11.05;66.26
60725;BME280;59881;36.722;-4.462;2023-02-23T04:52:11;99830.81;;;6.27;65.83
60725;BME280;59881;36.722;-4.462;2023-02-23T04:54:37;99846.75;;;6.51;66.02
60725;BME280;59881;36.722;-4.462;2023-02-23T04:57:04;100555.78;;;11.01;66.23
60725;BME280;59881;36.722;-4.462;2023-02-23T04:59:29;100632.56;;;10.96;66.33
60725;BME280;59881;36.722;-4.462;2023-02-23T05:01:55;100146.66;;;8.37;66.25
60725;BME280;59881;36.722;-4.462;2023-02-23T05:04:21;100462.84;;;9.16;66.24
60725;BME280;59881;36.722;-4.462;2023-02-23T05:06:47;100562.13;;;10.85;66.79
60725;BME280;59881;36.722;-4.462;2023-02-23T05:09:12;100569.31;;;10.83;66.45
60725;BME280;59881;36.722;-4.462;2023-02-23T05:11:38;100504.72;;;9.86;66.45
60725;BME280;59881;36.722;-4.462;2023-02-23T05:14:04;100261.94;;;8.67;66.56
60725;BME280;59881;36.722;-4.462;2023-02-23T05:16:29;99965.50;;;6.77;66.69
60725;BME280;59881;36.722;-4.462;2023-02-23T05:18:55;100584.28;;;10.70;66.62
60725;BME280;59881;36.722;-4.462;2023-02-23T05:21:20;100481.03;;;8.78;66.94
60725;BME280;59881;36.722;-4.462;2023-02-23T05:23:46;100388.75;;;8.69;67.11
60725;BME280;59881;36.722;-4.462;2023-02-23T05:26:12;100153.84;;;7.23;66.97
60725;BME280;59881;36.722;-4.462;2023-02-23T05:28:40;100559.91;;;10.66;67.04
60725;BME280;59881;36.722;-4.462;2023-02-23T05:31:06;100555.81;;;10.62;67.36
60725;BME280;59881;36.722;-4.462;2023-02-23T05:33:32;100209.59;;;8.52;67.56
60725;BME280;59881;36.722;-4.462;2023-02-23T05:35:58;100359.97;;;9.35;67.45
60725;BME280;59881;36.722;-4.462;2023-02-23T05:38:25;100259.44;;;8.79;67.45
60725;BME280;59881;36.722;-4.462;2023-02-23T05:40:51;100136.75;;;8.01;67.46
60725;BME280;59881;36.722;-4.462;2023-02-23T05:43:17;100658.34;;;10.52;67.73
60725;BME280;59881;36.722;-4.462;2023-02-23T05:45:43;100105.66;;;6.83;67.62
60725;BME280;59881;36.722;-4.462;2023-02-23T05:48:10;100578.06;;;10.45;67.68
60725;BME280;59881;36.722;-4.462;2023-02-23T05:50:35;99880.44;;;5.25;67.50
60725;BME280;59881;36.722;-4.462;2023-02-23T05:53:01;100523.75;;;9.23;68.12
60725;BME280;59881;36.722;-4.462;2023-02-23T05:55:27;99098.25;;;0.92;67.53
60725;BME280;59881;36.722;-4.462;2023-02-23T05:57:53;100698.09;;;10.35;68.10
60725;BME280;59881;36.722;-4.462;2023-02-23T06:00:18;100587.50;;;10.35;68.38
60725;BME280;59881;36.722;-4.462;2023-02-23T06:02:44;100382.16;;;9.31;68.31
60725;BME280;59881;36.722;-4.462;2023-02-23T06:05:11;100546.44;;;10.32;68.76
60725;BME280;59881;36.722;-4.462;2023-02-23T06:07:37;100592.25;;;9.76;68.98
60725;BME280;59881;36.722;-4.462;2023-02-23T06:10:03;100541.16;;;10.32;68.89
60725;BME280;59881;36.722;-4.462;2023-02-23T06:12:29;100370.16;;;9.27;68.50
60725;BME280;59881;36.722;-4.462;2023-02-23T06:14:55;100531.69;;;10.30;69.21
60725;BME280;59881;36.722;-4.462;2023-02-23T06:17:22;100440.63;;;9.07;68.80
60725;BME280;59881;36.722;-4.462;2023-02-23T06:19:47;100298.19;;;8.06;69.09
60725;BME280;59881;36.722;-4.462;2023-02-23T06:22:14;100554.72;;;10.26;69.44
60725;BME280;59881;36.722;-4.462;2023-02-23T06:24:42;100625.34;;;10.20;69.37
60725;BME280;59881;36.722;-4.462;2023-02-23T06:27:07;100629.56;;;10.22;69.21
60725;BME280;59881;36.722;-4.462;2023-02-23T06:29:33;99399.63;;;3.30;68.80
60725;BME280;59881;36.722;-4.462;2023-02-23T06:31:58;100143.19;;;7.27;69.35
60725;BME280;59881;36.722;-4.462;2023-02-23T06:34:24;100533.44;;;10.17;69.91
60725;BME280;59881;36.722;-4.462;2023-02-23T06:36:49;100614.16;;;10.16;69.84
60725;BME280;59881;36.722;-4.462;2023-02-23T06:39:15;100330.53;;;8.90;69.91
60725;BME280;59881;36.722;-4.462;2023-02-23T06:41:41;100579.34;;;10.12;70.37
60725;BME280;59881;36.722;-4.462;2023-02-23T06:44:06;99432.19;;;3.38;69.67
60725;BME280;59881;36.722;-4.462;2023-02-23T06:46:32;100535.50;;;10.11;70.17
60725;BME280;59881;36.722;-4.462;2023-02-23T06:48:58;100528.34;;;10.13;70.53
60725;BME280;59881;36.722;-4.462;2023-02-23T06:51:24;100536.16;;;10.15;70.50
60725;BME280;59881;36.722;-4.462;2023-02-23T06:53:50;100382.16;;;9.31;70.95
60725;BME280;59881;36.722;-4.462;2023-02-23T06:56:18;100196.84;;;7.77;71.05
60725;BME280;59881;36.722;-4.462;2023-02-23T06:58:43;100439.84;;;8.78;70.69
60725;BME280;59881;36.722;-4.462;2023-02-23T07:01:10;100535.16;;;10.43;70.72
60725;BME280;59881;36.722;-4.462;2023-02-23T07:03:37;100054.03;;;7.55;70.57
60725;BME280;59881;36.722;-4.462;2023-02-23T07:06:03;100544.66;;;10.59;70.35
60725;BME280;59881;36.722;-4.462;2023-02-23T07:08:30;99767.50;;;5.93;69.73
60725;BME280;59881;36.722;-4.462;2023-02-23T07:11:03;100002.53;;;7.54;69.93
60725;BME280;59881;36.722;-4.462;2023-02-23T07:13:28;100310.16;;;9.59;69.87
60725;BME280;59881;36.722;-4.462;2023-02-23T07:15:56;100369.03;;;10.46;69.20
60725;BME280;59881;36.722;-4.462;2023-02-23T07:18:22;100544.31;;;11.87;68.60
60725;BME280;59881;36.722;-4.462;2023-02-23T07:20:48;100142.94;;;9.18;67.07
60725;BME280;59881;36.722;-4.462;2023-02-23T07:23:16;100606.47;;;12.50;66.63
60725;BME280;59881;36.722;-4.462;2023-02-23T07:25:42;100648.59;;;12.98;65.55
60725;BME280;59881;36.722;-4.462;2023-02-23T07:28:08;100509.31;;;12.54;64.14
60725;BME280;59881;36.722;-4.462;2023-02-23T07:30:33;100528.47;;;14.11;62.06
60725;BME280;59881;36.722;-4.462;2023-02-23T07:32:59;100501.78;;;14.54;59.92
60725;BME280;59881;36.722;-4.462;2023-02-23T07:35:24;100521.59;;;15.21;57.55
60725;BME280;59881;36.722;-4.462;2023-02-23T07:37:50;100480.28;;;15.67;55.23
60725;BME280;59881;36.722;-4.462;2023-02-23T07:40:16;100504.25;;;16.44;53.43
60725;BME280;59881;36.722;-4.462;2023-02-23T07:42:42;100471.41;;;16.72;51.29
60725;BME280;59881;36.722;-4.462;2023-02-23T07:45:09;100117.31;;;15.13;49.44
60725;BME280;59881;36.722;-4.462;2023-02-23T07:47:34;100517.16;;;18.21;47.93
60725;BME280;59881;36.722;-4.462;2023-02-23T07:50:02;100510.28;;;18.97;45.99
60725;BME280;59881;36.722;-4.462;2023-02-23T07:52:32;100501.63;;;19.78;44.12
60725;BME280;59881;36.722;-4.462;2023-02-23T07:54:57;100486.41;;;20.12;42.72
60725;BME280;59881;36.722;-4.462;2023-02-23T07:57:23;100515.34;;;20.80;41.26
60725;BME280;59881;36.722;-4.462;2023-02-23T07:59:49;100504.63;;;21.51;39.91
60725;BME280;59881;36.722;-4.462;2023-02-23T08:02:15;100510.06;;;22.27;38.61
60725;BME280;59881;36.722;-4.462;2023-02-23T08:04:41;100511.00;;;22.93;36.97
60725;BME280;59881;36.722;-4.462;2023-02-23T08:07:08;100389.97;;;22.80;35.81
60725;BME280;59881;36.722;-4.462;2023-02-23T08:09:34;100504.44;;;24.19;34.83
60725;BME280;59881;36.722;-4.462;2023-02-23T08:12:00;100430.84;;;23.98;33.54
60725;BME280;59881;36.722;-4.462;2023-02-23T08:14:26;100509.22;;;25.34;32.42
60725;BME280;59881;36.722;-4.462;2023-02-23T08:16:52;100415.47;;;25.30;31.43
60725;BME280;59881;36.722;-4.462;2023-02-23T08:19:17;100511.38;;;26.39;30.80
60725;BME280;59881;36.722;-4.462;2023-02-23T08:21:47;100507.47;;;27.00;29.84
60725;BME280;59881;36.722;-4.462;2023-02-23T08:24:14;100232.66;;;25.78;29.07
60725;BME280;59881;36.722;-4.462;2023-02-23T08:26:39;100535.34;;;28.09;28.26
60725;BME280;59881;36.722;-4.462;2023-02-23T08:29:05;100284.44;;;26.91;27.92
60725;BME280;59881;36.722;-4.462;2023-02-23T08:31:31;100566.06;;;29.08;26.50
60725;BME280;59881;36.722;-4.462;2023-02-23T08:33:57;100540.50;;;29.35;25.71
60725;BME280;59881;36.722;-4.462;2023-02-23T08:36:23;100409.38;;;29.11;26.03
60725;BME280;59881;36.722;-4.462;2023-02-23T08:38:48;100438.53;;;30.04;24.55
60725;BME280;59881;36.722;-4.462;2023-02-23T08:41:14;100472.78;;;30.52;24.28
60725;BME280;59881;36.722;-4.462;2023-02-23T08:43:40;100497.56;;;31.37;24.47
60725;BME280;59881;36.722;-4.462;2023-02-23T08:46:06;100483.94;;;31.66;23.27
60725;BME280;59881;36.722;-4.462;2023-02-23T08:48:31;100155.84;;;29.77;23.41
60725;BME280;59881;36.722;-4.462;2023-02-23T08:50:58;100484.44;;;32.30;22.70
60725;BME280;59881;36.722;-4.462;2023-02-23T08:53:24;100507.69;;;32.99;22.41
60725;BME280;59881;36.722;-4.462;2023-02-23T08:56:05;100509.09;;;33.56;21.65
60725;BME280;59881;36.722;-4.462;2023-02-23T08:58:31;100598.41;;;33.83;21.31
60725;BME280;59881;36.722;-4.462;2023-02-23T09:00:58;100262.78;;;32.52;21.65
60725;BME280;59881;36.722;-4.462;2023-02-23T09:03:24;100483.78;;;34.40;20.79
60725;BME280;59881;36.722;-4.462;2023-02-23T09:05:51;100531.63;;;34.96;19.90
60725;BME280;59881;36.722;-4.462;2023-02-23T09:08:17;100556.72;;;35.40;19.56
60725;BME280;59881;36.722;-4.462;2023-02-23T09:10:43;100181.25;;;33.83;19.41
60725;BME280;59881;36.722;-4.462;2023-02-23T09:13:12;100501.38;;;36.25;18.53
60725;BME280;59881;36.722;-4.462;2023-02-23T09:15:39;100500.78;;;36.49;18.18
60725;BME280;59881;36.722;-4.462;2023-02-23T09:18:06;100373.06;;;36.17;17.64
60725;BME280;59881;36.722;-4.462;2023-02-23T09:20:32;100511.06;;;37.38;17.59
60725;BME280;59881;36.722;-4.462;2023-02-23T09:22:58;100289.59;;;36.39;17.70
60725;BME280;59881;36.722;-4.462;2023-02-23T09:25:24;100182.69;;;36.29;16.94
60725;BME280;59881;36.722;-4.462;2023-02-23T09:27:52;100366.28;;;37.92;16.29
60725;BME280;59881;36.722;-4.462;2023-02-23T09:30:20;100540.38;;;38.94;16.20
60725;BME280;59881;36.722;-4.462;2023-02-23T09:32:49;99986.53;;;36.12;15.74
60725;BME280;59881;36.722;-4.462;2023-02-23T09:35:16;100362.13;;;38.80;15.35
60725;BME280;59881;36.722;-4.462;2023-02-23T09:37:53;99919.97;;;36.55;14.91
60725;BME280;59881;36.722;-4.462;2023-02-23T09:40:24;100181.63;;;38.60;15.60
60725;BME280;59881;36.722;-4.462;2023-02-23T09:45:39;100496.06;;;41.54;14.82
60725;BME280;59881;36.722;-4.462;2023-02-23T09:48:11;100499.25;;;41.70;13.38
60725;BME280;59881;36.722;-4.462;2023-02-23T09:50:39;100285.19;;;40.55;12.84
60725;BME280;59881;36.722;-4.462;2023-02-23T09:55:55;100490.22;;;42.50;12.90
60725;BME280;59881;36.722;-4.462;2023-02-23T09:58:30;100517.50;;;43.09;12.56
60725;BME280;59881;36.722;-4.462;2023-02-23T10:04:09;100484.63;;;44.07;11.52
60725;BME280;59881;36.722;-4.462;2023-02-23T10:06:39;100477.91;;;44.46;11.46
60725;BME280;59881;36.722;-4.462;2023-02-23T10:11:57;100470.31;;;45.73;10.49
60725;BME280;59881;36.722;-4.462;2023-02-23T10:17:44;100469.44;;;46.30;9.40
60725;BME280;59881;36.722;-4.462;2023-02-23T10:22:49;100402.25;;;45.82;9.89
60725;BME280;59881;36.722;-4.462;2023-02-23T10:25:23;100461.84;;;46.68;9.69
60725;BME280;59881;36.722;-4.462;2023-02-23T10:27:51;100012.84;;;44.19;9.66
60725;BME280;59881;36.722;-4.462;2023-02-23T10:30:29;100196.34;;;44.72;9.43
60725;BME280;59881;36.722;-4.462;2023-02-23T10:33:21;100454.19;;;47.33;8.67
60725;BME280;59881;36.722;-4.462;2023-02-23T10:35:44;100413.75;;;48.03;8.01
60725;BME280;59881;36.722;-4.462;2023-02-23T10:38:15;100450.00;;;49.09;7.60
60725;BME280;59881;36.722;-4.462;2023-02-23T10:40:45;100363.59;;;48.84;8.06
60725;BME280;59881;36.722;-4.462;2023-02-23T10:43:13;100214.78;;;48.06;8.09
60725;BME280;59881;36.722;-4.462;2023-02-23T10:45:45;100446.44;;;48.93;8.17
60725;BME280;59881;36.722;-4.462;2023-02-23T10:48:33;100433.88;;;48.63;8.13
60725;BME280;59881;36.722;-4.462;2023-02-23T10:51:01;100359.38;;;48.52;8.23
60725;BME280;59881;36.722;-4.462;2023-02-23T10:53:34;100301.81;;;48.47;7.56
60725;BME280;59881;36.722;-4.462;2023-02-23T10:58:26;100476.25;;;48.85;7.97
60725;BME280;59881;36.722;-4.462;2023-02-23T11:00:55;100423.22;;;47.38;8.55
60725;BME280;59881;36.722;-4.462;2023-02-23T11:03:31;100468.41;;;46.10;9.43
60725;BME280;59881;36.722;-4.462;2023-02-23T11:05:57;100365.53;;;42.15;10.68
60725;BME280;59881;36.722;-4.462;2023-02-23T11:08:30;100433.47;;;36.72;14.58
60725;BME280;59881;36.722;-4.462;2023-02-23T11:13:45;100171.88;;;27.58;21.18
60725;BME280;59881;36.722;-4.462;2023-02-23T11:21:27;100297.44;;;25.12;25.59
60725;BME280;59881;36.722;-4.462;2023-02-23T11:24:00;100573.75;;;25.43;26.32
60725;BME280;59881;36.722;-4.462;2023-02-23T11:26:36;100445.84;;;24.97;27.18
60725;BME280;59881;36.722;-4.462;2023-02-23T11:29:36;100438.03;;;24.54;27.90
60725;BME280;59881;36.722;-4.462;2023-02-23T11:32:13;100372.97;;;23.81;28.10
60725;BME280;59881;36.722;-4.462;2023-02-23T11:34:40;99820.66;;;19.89;28.54
60725;BME280;59881;36.722;-4.462;2023-02-23T11:37:20;100424.94;;;23.88;28.47
60725;BME280;59881;36.722;-4.462;2023-02-23T11:40:00;100357.91;;;23.37;28.57
60725;BME280;59881;36.722;-4.462;2023-02-23T11:42:30;100419.97;;;23.63;29.09
60725;BME280;59881;36.722;-4.462;2023-02-23T11:47:43;100421.97;;;23.33;29.31
60725;BME280;59881;36.722;-4.462;2023-02-23T11:52:48;100353.13;;;22.08;30.22
60725;BME280;59881;36.722;-4.462;2023-02-23T11:55:17;100350.94;;;22.26;30.26
60725;BME280;59881;36.722;-4.462;2023-02-23T11:57:44;100020.59;;;19.93;30.91
60725;BME280;59881;36.722;-4.462;2023-02-23T12:00:22;100374.75;;;21.91;30.97
60725;BME280;59881;36.722;-4.462;2023-02-23T12:02:58;100390.47;;;21.42;31.15
60725;BME280;59881;36.722;-4.462;2023-02-23T12:05:27;100370.50;;;21.67;31.44
60725;BME280;59881;36.722;-4.462;2023-02-23T12:10:30;100264.09;;;21.15;31.02
60725;BME280;59881;36.722;-4.462;2023-02-23T12:12:59;100379.94;;;21.93;30.86
60725;BME280;59881;36.722;-4.462;2023-02-23T12:15:47;100377.72;;;21.82;30.55
60725;BME280;59881;36.722;-4.462;2023-02-23T12:21:03;100372.19;;;21.83;30.51
60725;BME280;59881;36.722;-4.462;2023-02-23T12:23:35;100342.13;;;21.73;30.71
60725;BME280;59881;36.722;-4.462;2023-02-23T12:26:09;100369.59;;;21.90;30.80
60725;BME280;59881;36.722;-4.462;2023-02-23T12:28:56;100361.06;;;21.86;31.17
60725;BME280;59881;36.722;-4.462;2023-02-23T12:31:28;100359.97;;;21.81;31.45
60725;BME280;59881;36.722;-4.462;2023-02-23T12:34:01;100318.25;;;21.48;30.97
60725;BME280;59881;36.722;-4.462;2023-02-23T12:36:38;100306.44;;;21.35;31.26
60725;BME280;59881;36.722;-4.462;2023-02-23T12:39:38;100300.06;;;21.36;31.42
60725;BME280;59881;36.722;-4.462;2023-02-23T12:42:13;100340.91;;;21.61;31.46
60725;BME280;59881;36.722;-4.462;2023-02-23T12:50:26;100339.91;;;21.77;32.13
60725;BME280;59881;36.722;-4.462;2023-02-23T12:52:56;100364.50;;;21.42;31.58
60725;BME280;59881;36.722;-4.462;2023-02-23T13:01:20;100314.06;;;21.46;32.00
60725;BME280;59881;36.722;-4.462;2023-02-23T13:04:08;100313.06;;;21.47;31.50
60725;BME280;59881;36.722;-4.462;2023-02-23T13:12:17;100290.28;;;21.28;31.90
60725;BME280;59881;36.722;-4.462;2023-02-23T13:17:53;100274.22;;;21.43;31.73
60725;BME280;59881;36.722;-4.462;2023-02-23T13:20:35;100266.41;;;21.41;31.82
60725;BME280;59881;36.722;-4.462;2023-02-23T13:25:56;100256.53;;;21.34;31.98
60725;BME280;59881;36.722;-4.462;2023-02-23T13:28:40;100233.81;;;21.15;32.29
60725;BME280;59881;36.722;-4.462;2023-02-23T13:31:23;100242.94;;;21.20;32.30
60725;BME280;59881;36.722;-4.462;2023-02-23T13:33:50;100240.28;;;21.20;32.42
60725;BME280;59881;36.722;-4.462;2023-02-23T13:36:17;100234.56;;;21.23;32.29
60725;BME280;59881;36.722;-4.462;2023-02-23T13:41:40;100221.25;;;21.15;31.97
60725;BME280;59881;36.722;-4.462;2023-02-23T13:44:42;100220.00;;;21.03;31.61
60725;BME280;59881;36.722;-4.462;2023-02-23T13:52:50;100158.81;;;20.62;31.82
60725;BME280;59881;36.722;-4.462;2023-02-23T13:58:13;100165.38;;;20.74;31.78
60725;BME280;59881;36.722;-4.462;2023-02-23T14:00:40;100184.22;;;20.81;31.75
60725;BME280;59881;36.722;-4.462;2023-02-23T14:03:16;100197.31;;;20.99;31.85
60725;BME280;59881;36.722;-4.462;2023-02-23T14:05:44;100203.59;;;21.06;31.57
60725;BME280;59881;36.722;-4.462;2023-02-23T14:08:26;100146.75;;;20.81;31.42
60725;BME280;59881;36.722;-4.462;2023-02-23T14:10:53;100189.72;;;21.02;30.94
60725;BME280;59881;36.722;-4.462;2023-02-23T14:13:27;100016.03;;;20.02;31.54
60725;BME280;59881;36.722;-4.462;2023-02-23T14:16:18;100177.06;;;20.96;31.16
60725;BME280;59881;36.722;-4.462;2023-02-23T14:21:50;100152.19;;;20.73;32.08
60725;BME280;59881;36.722;-4.462;2023-02-23T14:24:25;100182.56;;;20.80;31.73
60725;BME280;59881;36.722;-4.462;2023-02-23T14:29:40;100150.31;;;20.58;32.02
60725;BME280;59881;36.722;-4.462;2023-02-23T14:34:47;100165.09;;;20.69;31.93
60725;BME280;59881;36.722;-4.462;2023-02-23T14:39:50;100133.06;;;20.61;31.99
60725;BME280;59881;36.722;-4.462;2023-02-23T14:42:21;100158.31;;;20.81;32.05
60725;BME280;59881;36.722;-4.462;2023-02-23T14:44:48;100134.00;;;20.68;31.68
60725;BME280;59881;36.722;-4.462;2023-02-23T14:47:21;100155.75;;;20.88;31.92
60725;BME280;59881;36.722;-4.462;2023-02-23T14:49:54;100153.22;;;20.86;32.06
60725;BME280;59881;36.722;-4.462;2023-02-23T14:52:26;100058.31;;;20.21;32.11
60725;BME280;59881;36.722;-4.462;2023-02-23T14:55:20;100146.25;;;20.62;31.94
60725;BME280;59881;36.722;-4.462;2023-02-23T14:57:46;100114.47;;;20.21;31.95
60725;BME280;59881;36.722;-4.462;2023-02-23T15:00:22;100145.13;;;20.34;31.74
60725;BME280;59881;36.722;-4.462;2023-02-23T15:02:56;100143.16;;;20.27;31.70
60725;BME280;59881;36.722;-4.462;2023-02-23T15:05:26;100143.66;;;20.31;31.24
60725;BME280;59881;36.722;-4.462;2023-02-23T15:07:57;100092.47;;;20.11;31.51
60725;BME280;59881;36.722;-4.462;2023-02-23T15:10:43;99835.28;;;18.71;31.22
60725;BME280;59881;36.722;-4.462;2023-02-23T15:13:13;100134.22;;;20.81;30.99